Time;durP1;ratioP1;P1;durP2;ratioP2;P2;SDS_P1;SDS_P2;PMS_P1;PMS_P2;Temp;Humidity;BMP_temperature;BMP_pressure;BME280_temperature;BME280_humidity;BME280_pressure;Samples;Min_cycle;Max_cycle;Signal;HPM_P1;HPM_P2
2024/02/01 00:02:25;;;;;;;46.37;27.93;;;;;;;5.24;60.87;100965.91;4980028;28;97232;-81
2024/02/01 00:04:50;;;;;;;52.57;27.37;;;;;;;5.31;60.63;100962.41;4960369;28;96840;-82
2024/02/01 00:07:16;;;;;;;53.97;30.37;;;;;;;5.14;60.48;100933.78;4963515;28;101437;-82
2024/02/01 00:09:41;;;;;;;52.93;28.47;;;;;;;5.38;60.09;100958.94;4964187;28;101318;-81
2024/02/01 00:12:07;;;;;;;53.83;28.07;;;;;;;5.24;59.91;100936.41;4991720;28;97250;-81
2024/02/01 00:14:33;;;;;;;50.63;29.10;;;;;;;5.31;59.59;100948.53;4993403;28;96835;-81
2024/02/01 00:16:58;;;;;;;52.73;28.47;;;;;;;5.18;59.86;100927.72;4965174;28;101225;-81
2024/02/01 00:19:24;;;;;;;50.60;30.10;;;;;;;5.22;59.72;100936.38;4972146;28;100777;-81
2024/02/01 00:21:49;;;;;;;48.53;28.97;;;;;;;5.20;60.00;100938.97;4946849;28;97311;-81
2024/02/01 00:24:16;;;;;;;49.40;27.93;;;;;;;5.16;59.36;100923.41;4957286;28;97575;-81
2024/02/01 00:26:41;;;;;;;50.70;27.23;;;;;;;5.34;59.31;100931.16;4952996;28;101273;-81
2024/02/01 00:29:07;;;;;;;55.23;29.73;;;;;;;5.19;59.22;100905.16;4972747;28;100119;-81
2024/02/01 00:31:32;;;;;;;47.08;28.23;;;;;;;5.39;58.98;100923.34;4974658;28;97123;-81
2024/02/01 00:33:59;;;;;;;52.80;28.70;;;;;;;5.31;59.02;100923.34;4960851;28;97035;-81
2024/02/01 00:36:25;;;;;;;49.90;28.43;;;;;;;5.16;59.25;100898.22;4977766;28;101297;-81
2024/02/01 00:38:50;;;;;;;43.90;26.83;;;;;;;5.38;59.31;100924.19;5010038;28;97439;-82
2024/02/01 00:41:17;;;;;;;50.47;27.77;;;;;;;5.40;59.07;100919.84;4992677;28;96903;-81
2024/02/01 00:43:43;;;;;;;48.50;27.73;;;;;;;5.34;59.41;100920.72;4968838;28;97495;-81
2024/02/01 00:46:09;;;;;;;43.07;25.70;;;;;;;5.23;59.87;100906.88;5013702;28;97598;-81
2024/02/01 00:48:35;;;;;;;48.07;28.07;;;;;;;5.05;59.18;100899.13;4970606;28;101382;-81
2024/02/01 00:51:00;;;;;;;47.23;27.80;;;;;;;5.10;58.81;100905.19;4981666;28;96750;-82
2024/02/01 00:53:27;;;;;;;45.77;25.87;;;;;;;5.15;59.13;100919.94;4995073;28;98183;-83
2024/02/01 00:55:53;;;;;;;50.90;27.10;;;;;;;5.19;58.48;100929.44;4970024;28;101471;-82
2024/02/01 00:58:19;;;;;;;47.50;28.07;;;;;;;5.17;59.13;100925.97;4975929;28;98626;-81
2024/02/01 01:00:46;;;;;;;44.87;26.80;;;;;;;5.13;58.70;100926.00;4943240;28;96801;-82
2024/02/01 01:03:11;;;;;;;49.07;27.20;;;;;;;5.12;58.27;100914.72;4968107;28;97255;-81
2024/02/01 01:05:37;;;;;;;48.35;27.85;;;;;;;5.10;59.18;100916.47;4967273;28;97400;-82
2024/02/01 01:08:02;;;;;;;52.37;31.33;;;;;;;5.03;59.13;100908.66;4949373;28;101479;-82
2024/02/01 01:10:28;;;;;;;49.17;28.00;;;;;;;4.90;58.72;100887.00;4965472;28;96881;-82
2024/02/01 01:12:54;;;;;;;41.63;25.93;;;;;;;4.90;58.85;100879.22;4965333;28;96847;-82
2024/02/01 01:15:19;;;;;;;50.30;27.87;;;;;;;5.01;59.96;100890.47;4959855;28;101120;-82
2024/02/01 01:17:45;;;;;;;42.53;25.77;;;;;;;4.81;60.75;100880.09;4961081;28;101073;-82
2024/02/01 01:20:11;;;;;;;47.67;25.60;;;;;;;4.75;61.15;100870.56;4978797;28;96806;-82
2024/02/01 01:22:36;;;;;;;44.80;26.10;;;;;;;4.87;60.87;100884.41;4995165;28;97384;-82
2024/02/01 01:25:02;;;;;;;47.73;28.43;;;;;;;4.82;59.78;100876.59;4961313;28;101172;-82
2024/02/01 01:27:27;;;;;;;48.87;26.23;;;;;;;4.83;60.95;100880.97;4995332;28;97982;-82
2024/02/01 01:29:53;;;;;;;45.07;26.57;;;;;;;4.84;60.24;100881.81;4978221;28;97082;-82
2024/02/01 01:32:19;;;;;;;48.87;27.40;;;;;;;4.85;59.83;100875.75;4972437;28;96984;-82
2024/02/01 01:34:44;;;;;;;48.73;27.00;;;;;;;4.88;59.93;100870.53;4988553;28;97397;-82
2024/02/01 01:37:10;;;;;;;52.10;28.67;;;;;;;4.88;59.45;100866.19;4962543;28;100871;-82
2024/02/01 01:39:35;;;;;;;48.13;27.80;;;;;;;4.84;59.62;100869.69;4980030;28;96800;-81
2024/02/01 01:42:01;;;;;;;50.77;27.17;;;;;;;4.65;59.42;100837.63;4993391;28;96837;-82
2024/02/01 01:44:26;;;;;;;48.13;27.63;;;;;;;4.52;59.33;100821.19;4963211;28;101643;-82
2024/02/01 01:46:52;;;;;;;43.20;26.73;;;;;;;4.73;59.22;100842.81;4965560;28;101187;-82
2024/02/01 01:49:18;;;;;;;49.03;25.77;;;;;;;4.95;59.21;100867.06;4973811;28;97168;-82
2024/02/01 01:51:46;;;;;;;47.33;25.47;;;;;;;4.99;59.64;100853.16;4968172;28;97005;-82
2024/02/01 01:54:12;;;;;;;41.30;24.90;;;;;;;5.08;60.01;100863.53;4995057;28;98224;-82
2024/02/01 01:56:39;;;;;;;39.70;23.97;;;;;;;5.12;60.04;100853.97;4980562;28;97974;-84
2024/02/01 01:59:05;;;;;;;37.50;22.13;;;;;;;5.03;60.01;100828.00;4989569;28;96931;-82
2024/02/01 02:01:33;;;;;;;39.20;23.40;;;;;;;5.07;60.63;100825.38;4958455;28;97193;-81
2024/02/01 02:04:01;;;;;;;43.73;23.10;;;;;;;5.26;60.23;100846.13;4959281;28;101211;-82
2024/02/01 02:06:27;;;;;;;34.43;20.30;;;;;;;5.07;60.54;100816.72;4948968;28;101292;-81
2024/02/01 02:08:52;;;;;;;39.53;22.97;;;;;;;5.05;60.51;100800.25;4995209;28;97346;-82
2024/02/01 02:11:18;;;;;;;36.73;20.37;;;;;;;5.13;60.85;100809.75;4973557;28;96907;-82
2024/02/01 02:13:47;;;;;;;35.00;18.13;;;;;;;5.27;60.32;100829.66;4988996;28;97748;-82
2024/02/01 02:16:13;;;;;;;34.80;18.83;;;;;;;5.02;60.55;100780.28;4957618;28;101001;-83
2024/02/01 02:18:38;;;;;;;33.37;20.50;;;;;;;5.28;60.42;100819.22;4965201;28;96845;-81
2024/02/01 02:21:04;;;;;;;33.13;17.53;;;;;;;5.40;60.28;100821.75;4971240;28;96881;-82
2024/02/01 02:23:29;;;;;;;29.87;17.27;;;;;;;5.32;60.55;100791.44;4984724;28;97547;-81
2024/02/01 02:25:55;;;;;;;26.37;16.73;;;;;;;5.37;60.13;100810.50;4980920;28;98117;-82
2024/02/01 02:28:21;;;;;;;27.17;15.43;;;;;;;5.41;60.48;100807.91;4992545;28;96811;-82
2024/02/01 02:30:47;;;;;;;29.27;16.33;;;;;;;5.45;60.28;100806.13;4986908;28;97047;-83
2024/02/01 02:33:13;;;;;;;26.57;15.77;;;;;;;5.28;60.58;100784.53;4970495;28;100272;-82
2024/02/01 02:35:39;;;;;;;27.30;15.23;;;;;;;5.46;60.38;100807.84;4957961;28;101546;-82
2024/02/01 02:38:04;;;;;;;23.03;14.50;;;;;;;5.31;60.36;100785.38;4977005;28;96931;-82
2024/02/01 02:40:30;;;;;;;25.90;14.30;;;;;;;5.36;61.05;100780.16;4983902;28;96916;-82
2024/02/01 02:42:55;;;;;;;21.60;13.40;;;;;;;5.49;60.93;100796.56;4958922;28;101668;-82
2024/02/01 02:45:21;;;;;;;25.27;13.33;;;;;;;5.48;60.86;100798.31;4988203;28;97858;-82
2024/02/01 02:47:47;;;;;;;22.50;13.47;;;;;;;5.54;60.87;100807.81;4963591;28;96809;-82
2024/02/01 02:50:12;;;;;;;20.33;11.83;;;;;;;5.41;60.87;100784.47;4961913;28;97383;-82
2024/02/01 02:52:39;;;;;;;19.97;12.60;;;;;;;5.43;60.60;100776.63;4963730;28;101261;-82
2024/02/01 02:55:07;;;;;;;27.63;14.17;;;;;;;5.56;60.96;100795.66;4969614;28;100960;-82
2024/02/01 02:57:33;;;;;;;19.67;12.57;;;;;;;5.45;61.30;100795.72;4959596;28;97378;-82
2024/02/01 02:59:59;;;;;;;21.97;12.00;;;;;;;5.44;61.36;100781.84;4994557;28;96826;-83
2024/02/01 03:02:24;;;;;;;19.00;12.97;;;;;;;5.58;60.91;100796.50;4963980;28;97836;-82
2024/02/01 03:04:50;;;;;;;21.03;12.23;;;;;;;5.39;61.12;100765.38;4976813;28;101597;-82
2024/02/01 03:07:15;;;;;;;19.30;12.57;;;;;;;5.53;61.57;100780.06;4963923;28;97164;-81
2024/02/01 03:09:40;;;;;;;22.13;12.67;;;;;;;5.48;61.47;100767.06;4975640;28;96966;-82
2024/02/01 03:12:09;;;;;;;17.23;11.63;;;;;;;5.59;61.29;100780.03;4955585;28;100914;-81
2024/02/01 03:14:39;;;;;;;20.73;12.70;;;;;;;5.61;61.38;100783.47;4985274;28;100857;-82
2024/02/01 03:17:05;;;;;;;20.90;12.80;;;;;;;5.62;61.33;100769.59;4967240;28;96900;-82
2024/02/01 03:19:34;;;;;;;19.30;11.60;;;;;;;5.61;60.81;100763.50;4957170;28;97048;-82
2024/02/01 03:22:00;;;;;;;21.63;12.53;;;;;;;5.70;61.16;100774.72;4965616;28;99623;-83
2024/02/01 03:24:25;;;;;;;22.63;13.37;;;;;;;5.65;60.78;100752.19;4979849;28;100337;-82
2024/02/01 03:26:50;;;;;;;17.87;11.53;;;;;;;5.75;61.31;100781.63;4963114;28;96991;-82
2024/02/01 03:29:17;;;;;;;19.07;12.00;;;;;;;5.71;60.90;100758.22;4986223;28;97364;-82
2024/02/01 03:31:43;;;;;;;19.57;11.77;;;;;;;5.71;61.15;100773.88;4986994;28;101053;-81
2024/02/01 03:34:15;;;;;;;22.93;13.63;;;;;;;5.67;60.60;100750.44;4975791;28;101134;-83
2024/02/01 03:36:41;;;;;;;22.53;12.53;;;;;;;5.59;61.20;100749.63;4967577;28;96721;-81
2024/02/01 03:39:22;;;;;;;19.93;11.87;;;;;;;5.64;61.53;100758.28;4961701;28;97090;-82
2024/02/01 03:41:49;;;;;;;20.03;12.67;;;;;;;5.60;61.75;100748.75;4985260;28;98043;-81
2024/02/01 03:44:15;;;;;;;17.43;11.70;;;;;;;5.55;61.78;100713.19;4963546;28;101295;-82
2024/02/01 03:46:41;;;;;;;18.47;11.73;;;;;;;5.63;61.98;100737.44;4956679;28;96800;-82
2024/02/01 03:49:08;;;;;;;16.13;10.60;;;;;;;5.73;62.09;100738.22;4962137;28;97056;-82
2024/02/01 03:51:36;;;;;;;17.90;10.57;;;;;;;5.74;62.32;100721.75;4965699;28;101397;-82
2024/02/01 03:54:11;;;;;;;18.30;10.83;;;;;;;5.68;62.30;100705.28;4972468;28;98157;-82
2024/02/01 03:56:37;;;;;;;17.27;11.13;;;;;;;5.73;62.41;100714.78;4965056;28;97120;-82
2024/02/01 03:59:03;;;;;;;15.83;10.00;;;;;;;5.81;61.50;100703.41;4967840;28;96955;-82
2024/02/01 04:01:30;;;;;;;18.30;11.13;;;;;;;5.89;61.88;100713.78;4976703;28;101130;-81
2024/02/01 04:03:56;;;;;;;14.07;9.23;;;;;;;5.91;61.43;100712.03;4961948;28;100990;-82
2024/02/01 04:06:23;;;;;;;15.97;9.87;;;;;;;5.88;61.57;100725.09;4965944;28;96722;-82
2024/02/01 04:08:49;;;;;;;16.60;10.13;;;;;;;5.73;61.90;100688.72;4977135;28;96817;-82
2024/02/01 04:11:15;;;;;;;15.33;9.40;;;;;;;5.94;61.80;100717.25;4971764;28;100946;-82
2024/02/01 04:13:41;;;;;;;16.90;9.50;;;;;;;6.00;61.67;100712.00;4973183;28;101501;-82
2024/02/01 04:16:06;;;;;;;21.30;10.60;;;;;;;5.90;61.55;100692.94;5008251;28;96962;-82
2024/02/01 04:18:32;;;;;;;14.27;9.63;;;;;;;6.01;61.99;100715.47;4954106;28;97069;-83
2024/02/01 04:20:58;;;;;;;17.80;10.93;;;;;;;6.15;61.42;100710.13;4967556;28;101290;-82
2024/02/01 04:23:24;;;;;;;16.25;10.18;;;;;;;6.17;61.17;100714.44;4967384;28;101635;-82
2024/02/01 04:25:49;;;;;;;18.38;10.40;;;;;;;6.15;61.54;100697.09;4977826;28;97068;-82
2024/02/01 04:28:16;;;;;;;16.00;10.25;;;;;;;6.12;61.06;100682.34;4972201;28;96738;-82
2024/02/01 04:30:50;;;;;;;15.93;9.33;;;;;;;6.26;61.18;100703.06;4983068;28;97421;-81
2024/02/01 04:33:22;;;;;;;15.13;9.50;;;;;;;6.21;60.97;100694.41;4960551;28;99899;-81
2024/02/01 04:35:48;;;;;;;16.38;9.35;;;;;;;6.10;61.37;100669.31;4983588;28;97298;-82
2024/02/01 04:38:14;;;;;;;15.02;10.00;;;;;;;6.28;61.24;100719.53;4980110;28;96855;-81
2024/02/01 04:40:39;;;;;;;17.58;10.07;;;;;;;6.22;61.58;100688.31;4958279;28;101637;-82
2024/02/01 04:43:05;;;;;;;16.40;9.45;;;;;;;6.36;61.02;100709.91;4974698;28;101974;-82
2024/02/01 04:45:32;;;;;;;16.83;10.20;;;;;;;6.19;61.50;100681.38;5006087;28;97224;-81
2024/02/01 04:47:57;;;;;;;17.23;10.07;;;;;;;6.50;61.04;100714.97;4955216;28;97468;-82
2024/02/01 04:50:23;;;;;;;15.10;9.82;;;;;;;6.45;61.29;100703.72;4967891;28;101248;-82
2024/02/01 04:52:49;;;;;;;15.77;10.33;;;;;;;6.43;61.54;100708.06;4961888;28;101543;-83
2024/02/01 04:55:15;;;;;;;14.50;9.65;;;;;;;6.45;61.37;100706.31;4971631;28;96777;-82
2024/02/01 04:57:40;;;;;;;12.93;9.20;;;;;;;6.34;61.12;100680.34;4980935;28;97462;-82
2024/02/01 05:00:13;;;;;;;16.67;9.38;;;;;;;6.44;61.45;100697.63;5013382;28;97751;-82
2024/02/01 05:02:41;;;;;;;19.15;10.63;;;;;;;6.49;61.29;100706.28;4962803;28;99906;-81
2024/02/01 05:05:09;;;;;;;16.33;9.48;;;;;;;6.38;61.28;100697.72;4978626;28;96772;-82
2024/02/01 05:07:34;;;;;;;19.47;9.40;;;;;;;6.41;61.44;100691.59;4961834;28;98609;-82
2024/02/01 05:10:00;;;;;;;17.17;10.15;;;;;;;6.36;61.15;100694.25;4968928;28;97656;-82
2024/02/01 05:12:25;;;;;;;13.30;10.02;;;;;;;6.31;61.07;100669.97;4984812;28;97984;-82
2024/02/01 05:14:51;;;;;;;15.25;9.80;;;;;;;6.41;61.03;100694.22;4978893;28;96840;-82
2024/02/01 05:17:16;;;;;;;18.00;9.48;;;;;;;6.28;61.44;100694.34;4974575;28;97059;-82
2024/02/01 05:19:42;;;;;;;14.40;9.47;;;;;;;6.45;61.30;100704.56;4962073;28;101684;-81
2024/02/01 05:22:07;;;;;;;15.68;9.95;;;;;;;6.50;60.99;100692.34;4958860;28;100992;-82
2024/02/01 05:24:34;;;;;;;14.88;9.57;;;;;;;6.54;60.78;100686.25;4957642;28;96719;-81
2024/02/01 05:27:07;;;;;;;16.92;9.30;;;;;;;6.47;60.71;100681.97;4953979;28;97620;-83
2024/02/01 05:29:33;;;;;;;14.75;9.75;;;;;;;6.52;60.69;100700.19;4963715;28;101596;-82
2024/02/01 05:31:58;;;;;;;13.68;9.85;;;;;;;6.40;61.03;100664.66;4991567;28;99051;-82
2024/02/01 05:34:24;;;;;;;13.27;9.55;;;;;;;6.37;60.54;100661.22;4977712;28;96697;-82
2024/02/01 05:36:51;;;;;;;17.60;11.10;;;;;;;6.59;60.85;100686.16;4994612;28;97167;-82
2024/02/01 05:39:26;;;;;;;14.82;9.45;;;;;;;6.73;60.13;100689.47;4959186;28;102078;-81
2024/02/01 05:41:53;;;;;;;16.35;10.45;;;;;;;6.66;60.34;100681.72;4971844;28;101638;-82
2024/02/01 05:44:20;;;;;;;15.68;9.90;;;;;;;6.65;60.61;100675.66;4954658;28;97369;-82
2024/02/01 05:46:53;;;;;;;14.65;9.48;;;;;;;6.78;60.42;100692.91;4984693;28;97426;-82
2024/02/01 05:49:18;;;;;;;15.18;9.57;;;;;;;6.75;60.12;100682.50;4982106;28;98024;-82
2024/02/01 05:51:46;;;;;;;16.27;8.60;;;;;;;6.84;60.30;100689.34;4966934;28;101219;-82
2024/02/01 05:54:12;;;;;;;17.77;10.50;;;;;;;6.80;60.01;100682.41;4955173;28;96816;-82
2024/02/01 05:56:38;;;;;;;15.45;10.35;;;;;;;6.91;59.67;100690.97;4975161;28;97089;-82
2024/02/01 05:59:03;;;;;;;19.95;9.40;;;;;;;6.97;59.74;100690.03;4992396;28;98065;-81
2024/02/01 06:01:30;;;;;;;17.15;10.25;;;;;;;6.94;59.62;100693.56;4961253;28;100982;-82
2024/02/01 06:03:56;;;;;;;16.02;10.80;;;;;;;6.96;59.60;100683.97;4975850;28;96765;-83
2024/02/01 06:06:21;;;;;;;23.83;10.35;;;;;;;6.96;59.95;100680.50;4988884;28;97043;-82
2024/02/01 06:08:47;;;;;;;16.52;10.25;;;;;;;6.70;59.30;100637.34;4960104;28;101113;-81
2024/02/01 06:11:12;;;;;;;18.42;10.10;;;;;;;6.94;59.46;100663.97;4983187;28;97581;-82
2024/02/01 06:13:38;;;;;;;17.23;10.30;;;;;;;6.79;59.68;100649.41;4989822;28;96755;-83
2024/02/01 06:16:04;;;;;;;15.10;9.93;;;;;;;6.91;59.63;100684.91;4952408;28;97350;-81
2024/02/01 06:18:31;;;;;;;18.70;11.10;;;;;;;6.70;60.28;100668.63;4955775;28;101390;-82
2024/02/01 06:20:57;;;;;;;17.52;10.88;;;;;;;6.66;60.64;100666.97;5012525;28;97541;-82
2024/02/01 06:23:23;;;;;;;19.13;9.85;;;;;;;6.71;61.00;100670.34;4971946;28;97223;-81
2024/02/01 06:25:48;;;;;;;16.90;9.98;;;;;;;6.82;61.04;100679.81;4972767;28;96903;-81
2024/02/01 06:28:13;;;;;;;12.80;8.57;;;;;;;6.78;61.76;100690.28;4984738;28;97511;-81
2024/02/01 06:30:39;;;;;;;16.40;8.35;;;;;;;6.95;61.88;100710.97;4978231;28;97392;-82
2024/02/01 06:33:04;;;;;;;16.15;8.80;;;;;;;6.78;61.95;100684.22;4994119;28;97019;-81
2024/02/01 06:35:33;;;;;;;18.25;10.77;;;;;;;7.04;62.38;100712.59;4971766;28;97309;-81
2024/02/01 06:38:15;;;;;;;15.52;8.30;;;;;;;6.71;63.13;100686.00;4970908;28;97548;-80
2024/02/01 06:43:27;;;;;;;12.25;8.20;;;;;;;6.80;63.53;100704.16;4977675;28;97205;-79
2024/02/01 06:46:09;;;;;;;15.18;8.70;;;;;;;6.75;64.20;100702.50;4977322;28;97289;-80
2024/02/01 06:48:43;;;;;;;17.58;10.63;;;;;;;6.90;63.97;100710.16;4974065;28;101316;-80
2024/02/01 06:51:21;;;;;;;18.10;10.07;;;;;;;6.88;64.16;100708.44;4988770;28;101925;-80
2024/02/01 06:54:05;;;;;;;16.05;10.07;;;;;;;6.87;64.59;100709.31;4978883;28;96689;-80
2024/02/01 06:56:52;;;;;;;15.60;9.15;;;;;;;6.74;64.85;100693.81;4975030;28;96741;-79
2024/02/01 06:59:33;;;;;;;17.80;8.93;;;;;;;6.93;64.74;100717.94;4995301;28;98669;-80
2024/02/01 07:02:14;;;;;;;22.30;10.43;;;;;;;6.88;65.25;100721.47;4971121;28;101688;-80
2024/02/01 07:04:50;;;;;;;13.68;7.68;;;;;;;6.61;66.88;100728.75;4977130;28;96813;-80
2024/02/01 07:07:26;;;;;;;11.70;8.10;;;;;;;6.45;67.31;100701.97;4992327;28;97185;-80
2024/02/01 07:09:58;;;;;;;11.43;6.55;;;;;;;6.55;68.19;100726.22;4984289;28;97365;-80
2024/02/01 07:12:42;;;;;;;9.73;5.80;;;;;;;6.46;68.70;100708.94;4988449;28;101395;-80
2024/02/01 07:15:30;;;;;;;12.35;7.20;;;;;;;6.62;68.37;100721.78;4991981;28;97052;-81
2024/02/01 07:18:14;;;;;;;10.25;6.22;;;;;;;6.60;68.65;100707.91;4974115;28;96909;-80
2024/02/01 07:26:43;;;;;;;10.15;6.78;;;;;;;6.65;68.97;100722.63;4983126;28;96999;-81
2024/02/01 07:58:43;;;;;;;10.43;5.68;;;;;;;6.74;69.41;100717.28;4979617;28;97287;-81
2024/02/01 08:01:14;;;;;;;10.52;5.60;;;;;;;6.79;69.42;100731.16;4964361;28;97324;-81
2024/02/01 08:03:58;;;;;;;11.18;6.45;;;;;;;6.66;69.60;100707.81;4973247;28;101225;-81
2024/02/01 08:09:14;;;;;;;11.30;6.25;;;;;;;6.89;69.55;100739.72;4970251;28;97104;-81
2024/02/01 08:11:42;;;;;;;9.45;5.70;;;;;;;6.80;69.80;100742.44;4952199;28;97778;-81
2024/02/01 08:14:13;;;;;;;10.93;5.15;;;;;;;6.93;69.73;100749.25;4963711;28;101319;-82
2024/02/01 08:16:46;;;;;;;11.65;6.05;;;;;;;7.01;69.58;100742.19;4964922;28;101590;-83
2024/02/01 08:19:12;;;;;;;10.52;5.43;;;;;;;6.95;70.21;100731.84;4974809;28;98444;-82
2024/02/01 08:21:39;;;;;;;9.55;5.90;;;;;;;6.80;70.14;100724.16;4972748;28;96980;-83
2024/02/01 08:24:06;;;;;;;7.90;6.25;;;;;;;6.77;70.38;100719.84;4991850;28;98105;-81
2024/02/01 08:26:43;;;;;;;7.82;5.80;;;;;;;6.89;70.21;100744.06;4970538;28;98139;-82
2024/02/01 08:29:14;;;;;;;9.50;5.60;;;;;;;6.84;70.05;100723.28;4996994;28;96792;-82
2024/02/01 08:31:40;;;;;;;8.97;5.50;;;;;;;6.93;70.09;100756.22;4987699;28;96889;-81
2024/02/01 08:34:07;;;;;;;8.32;5.70;;;;;;;7.00;70.28;100742.19;4974627;28;100911;-82
2024/02/01 08:36:34;;;;;;;9.07;5.60;;;;;;;7.10;69.89;100750.75;4990511;28;101228;-74
2024/02/01 08:39:00;;;;;;;7.78;5.30;;;;;;;6.97;70.09;100735.28;4990230;28;97459;-73
2024/02/01 08:41:35;;;;;;;9.27;5.70;;;;;;;7.06;69.60;100733.44;5007172;28;98401;-72
2024/02/01 08:44:02;;;;;;;8.68;5.57;;;;;;;6.92;70.07;100728.38;4974713;28;98496;-72
2024/02/01 08:46:28;;;;;;;7.88;5.70;;;;;;;7.19;69.56;100732.41;4993080;28;97389;-72
2024/02/01 08:48:54;;;;;;;6.93;4.68;;;;;;;7.16;69.93;100754.19;4994290;28;96783;-71
2024/02/01 08:51:19;;;;;;;7.65;4.93;;;;;;;7.11;69.79;100749.91;5007156;28;96915;-73
2024/02/01 08:53:45;;;;;;;8.35;5.30;;;;;;;7.17;69.32;100752.44;5012059;28;97899;-74
2024/02/01 08:56:12;;;;;;;7.15;4.57;;;;;;;7.10;69.46;100736.00;4994802;28;97458;-72
2024/02/01 08:58:38;;;;;;;10.00;5.50;;;;;;;7.13;69.65;100763.81;4990392;28;96878;-73
2024/02/01 09:01:04;;;;;;;8.35;5.00;;;;;;;7.12;69.85;100759.44;5009829;28;96856;-74
2024/02/01 09:03:30;;;;;;;10.25;5.50;;;;;;;7.10;69.34;100769.03;4963287;28;101573;-75
2024/02/01 09:06:08;;;;;;;7.55;5.15;;;;;;;7.07;69.26;100733.44;4971166;28;101399;-74
2024/02/01 09:08:39;;;;;;;8.00;4.95;;;;;;;7.18;69.48;100754.16;4976273;28;97296;-74
2024/02/01 09:11:28;;;;;;;8.02;5.10;;;;;;;7.35;69.01;100764.38;4984131;28;97646;-75
2024/02/01 09:13:51;;;;;;;6.53;5.03;;;;;;;7.33;69.22;100759.19;4986982;28;97678;-74
2024/02/01 09:16:21;;;;;;;6.28;4.13;;;;;;;7.39;68.83;100758.25;4950673;28;101193;-74
2024/02/01 09:18:48;;;;;;;6.43;4.22;;;;;;;7.40;69.00;100780.84;4999383;28;97563;-74
2024/02/01 09:21:14;;;;;;;10.35;4.82;;;;;;;7.35;68.79;100752.16;4980456;28;96893;-74
2024/02/01 09:23:39;;;;;;;5.65;4.13;;;;;;;7.42;68.85;100759.06;4963001;28;97719;-74
2024/02/01 09:26:08;;;;;;;4.80;3.35;;;;;;;7.43;68.81;100767.75;4969424;28;98047;-75
2024/02/01 09:28:34;;;;;;;6.60;3.78;;;;;;;7.43;69.53;100783.41;4969699;28;97311;-75
2024/02/01 09:31:00;;;;;;;8.32;4.40;;;;;;;7.50;69.16;100774.59;4982910;28;97370;-72
2024/02/01 09:33:27;;;;;;;5.38;3.42;;;;;;;7.42;69.32;100777.34;5008271;28;98578;-74
2024/02/01 09:35:53;;;;;;;7.05;3.53;;;;;;;7.49;69.06;100768.50;4993604;28;97376;-81
2024/02/01 09:38:19;;;;;;;5.22;3.40;;;;;;;7.55;69.63;100771.94;4979661;28;98043;-80
2024/02/01 09:40:48;;;;;;;4.60;3.38;;;;;;;7.67;68.70;100774.38;4953039;28;97336;-80
2024/02/01 09:43:21;;;;;;;6.38;2.92;;;;;;;7.60;69.53;100765.75;4993925;28;97870;-80
2024/02/01 09:45:48;;;;;;;4.78;2.95;;;;;;;7.62;69.73;100773.56;4970496;28;101436;-79
2024/02/01 09:48:16;;;;;;;4.30;2.75;;;;;;;7.53;70.08;100779.78;4983819;28;96882;-81
2024/02/01 09:50:54;;;;;;;3.45;2.70;;;;;;;7.52;70.41;100756.31;4977301;28;96840;-80
2024/02/01 09:53:25;;;;;;;5.53;2.75;;;;;;;7.54;70.77;100781.53;4967601;28;98196;-80
2024/02/01 09:55:55;;;;;;;3.88;2.72;;;;;;;7.49;71.58;100793.78;4967349;28;101130;-80
2024/02/01 09:58:21;;;;;;;4.32;2.97;;;;;;;7.71;70.87;100778.69;4987578;28;97140;-81
2024/02/01 10:00:47;;;;;;;4.57;2.67;;;;;;;7.70;71.77;100782.16;4962961;28;97222;-73
2024/02/01 10:03:15;;;;;;;5.65;3.17;;;;;;;7.82;71.49;100783.72;4978698;28;97518;-74
2024/02/01 10:05:43;;;;;;;3.88;2.70;;;;;;;7.79;71.54;100774.16;4972729;28;101020;-77
2024/02/01 10:08:13;;;;;;;7.60;3.20;;;;;;;7.84;71.77;100756.66;4990377;28;96781;-77
2024/02/01 10:10:41;;;;;;;3.28;2.55;;;;;;;7.85;71.05;100750.56;4978742;28;97179;-81
2024/02/01 10:13:13;;;;;;;3.80;2.72;;;;;;;7.69;71.53;100736.88;4973433;28;101480;-80
2024/02/01 10:15:45;;;;;;;;;;;;;;;8.00;71.25;100759.91;4960988;28;101482;-81
2024/02/01 10:18:21;;;;;;;4.43;2.60;;;;;;;7.72;71.83;100728.13;4990087;28;97234;-81
2024/02/01 10:20:54;;;;;;;5.20;2.47;;;;;;;7.89;71.87;100759.22;4966680;28;97160;-81
2024/02/01 10:23:20;;;;;;;3.30;2.22;;;;;;;7.94;72.02;100755.66;4978112;28;101591;-81
2024/02/01 10:25:47;;;;;;;3.75;2.10;;;;;;;7.96;71.77;100739.06;4976076;28;100661;-80
2024/02/01 10:28:16;;;;;;;3.55;2.38;;;;;;;7.96;71.51;100739.94;4978235;28;96764;-81
2024/02/01 10:30:42;;;;;;;3.38;2.20;;;;;;;8.16;71.65;100756.13;4976275;28;97315;-81
2024/02/01 10:33:12;;;;;;;5.13;2.22;;;;;;;8.27;71.14;100752.50;4951337;28;101312;-81
2024/02/01 10:35:38;;;;;;;3.60;2.05;;;;;;;8.29;70.70;100725.41;4957974;28;101595;-81
2024/02/01 10:38:12;;;;;;;3.13;2.28;;;;;;;8.45;70.82;100756.56;4981128;28;96791;-81
2024/02/01 10:40:46;;;;;;;2.60;2.00;;;;;;;8.21;71.61;100729.91;4974335;28;97147;-81
2024/02/01 10:43:26;;;;;;;4.43;2.55;;;;;;;8.45;71.39;100748.72;4977547;28;101274;-80
2024/02/01 10:46:07;;;;;;;5.93;2.90;;;;;;;8.19;71.37;100729.06;4980145;28;97734;-81
2024/02/01 10:49:04;;;;;;;2.97;2.10;;;;;;;8.24;71.84;100726.38;4972223;28;97069;-81
2024/02/01 10:51:31;;;;;;;2.75;2.10;;;;;;;8.18;71.74;100735.22;4989914;28;96836;-81
2024/02/01 10:53:59;;;;;;;2.92;2.05;;;;;;;8.00;71.29;100710.25;4975969;28;101807;-80
2024/02/01 10:56:29;;;;;;;3.75;2.13;;;;;;;7.85;72.27;100702.63;4958392;28;101364;-81
2024/02/01 10:58:57;;;;;;;3.67;2.03;;;;;;;8.08;72.17;100742.31;4979160;28;96883;-80
2024/02/01 11:01:28;;;;;;;2.90;1.88;;;;;;;8.03;72.82;100740.69;4971570;28;96936;-81
2024/02/01 11:03:59;;;;;;;3.38;1.88;;;;;;;8.01;72.99;100740.72;4968306;28;101696;-80
2024/02/01 11:06:26;;;;;;;3.80;1.95;;;;;;;7.94;73.25;100737.34;4988610;28;101026;-81
2024/02/01 11:08:53;;;;;;;2.67;1.85;;;;;;;8.05;72.44;100738.91;4971793;28;96843;-80
2024/02/01 11:11:21;;;;;;;2.33;1.60;;;;;;;7.96;72.85;100736.44;4976386;28;96941;-80
2024/02/01 11:14:13;;;;;;;4.75;1.83;;;;;;;7.78;72.98;100728.03;4961897;28;101274;-81
2024/02/01 11:16:48;;;;;;;3.05;2.00;;;;;;;7.58;73.78;100730.94;4984579;28;101361;-80
2024/02/01 11:19:15;;;;;;;2.38;1.80;;;;;;;7.71;73.68;100735.09;4972756;28;96799;-80
2024/02/01 11:21:56;;;;;;;5.90;2.22;;;;;;;7.78;73.70;100738.47;4971110;28;97308;-80
2024/02/01 11:24:22;;;;;;;3.55;1.88;;;;;;;7.86;74.02;100726.16;4988157;28;101798;-79
2024/02/01 11:26:54;;;;;;;5.13;2.17;;;;;;;8.16;73.41;100724.75;4981878;28;97821;-80
2024/02/01 11:29:23;;;;;;;5.45;2.42;;;;;;;8.28;73.24;100722.81;4971001;28;97158;-80
2024/02/01 11:31:54;;;;;;;4.57;1.88;;;;;;;8.33;73.13;100718.38;4963712;28;97248;-83
2024/02/01 11:34:22;;;;;;;4.05;2.30;;;;;;;8.31;72.70;100721.00;4991337;28;97671;-74
2024/02/01 11:36:48;;;;;;;2.45;1.98;;;;;;;8.33;72.20;100721.84;4962746;28;101388;-78
2024/02/01 11:39:15;;;;;;;4.07;2.53;;;;;;;8.44;72.00;100710.38;4987293;28;97308;-83
2024/02/01 11:41:46;;;;;;;3.83;2.35;;;;;;;8.60;71.08;100704.78;4993827;28;97230;-83
2024/02/01 11:44:15;;;;;;;3.17;2.17;;;;;;;8.77;71.05;100706.22;4969197;28;101077;-74
2024/02/01 11:46:45;;;;;;;3.22;1.98;;;;;;;8.62;70.15;100704.75;4984994;28;98065;-74
2024/02/01 11:49:19;;;;;;;4.57;2.17;;;;;;;8.63;69.68;100695.16;4978353;28;98312;-74
2024/02/01 11:52:13;;;;;;;4.65;2.88;;;;;;;8.81;69.74;100718.31;4970358;28;98009;-74
2024/02/01 11:54:46;;;;;;;5.10;2.03;;;;;;;8.64;68.83;100696.88;4989789;28;98764;-75
2024/02/01 11:57:18;;;;;;;2.45;2.08;;;;;;;8.64;68.65;100709.94;4974967;28;98030;-76
2024/02/01 11:59:44;;;;;;;2.88;1.67;;;;;;;8.59;68.34;100708.31;4959057;28;97815;-80
2024/02/01 12:02:10;;;;;;;2.90;1.65;;;;;;;8.66;67.99;100723.88;4957868;28;97255;-80
2024/02/01 12:04:41;;;;;;;6.45;2.30;;;;;;;8.73;67.81;100715.03;4957023;28;101432;-82
2024/02/01 12:07:09;;;;;;;4.28;2.00;;;;;;;8.85;67.52;100714.78;4956625;28;101279;-79
2024/02/01 12:09:36;;;;;;;4.93;2.08;;;;;;;8.80;67.29;100714.00;4995057;28;97756;-80